Time;durP1;ratioP1;P1;durP2;ratioP2;P2;SDS_P1;SDS_P2;PMS_P1;PMS_P2;Temp;Humidity;BMP_temperature;BMP_pressure;BME280_temperature;BME280_humidity;BME280_pressure;Samples;Min_cycle;Max_cycle;Signal;HPM_P1;HPM_P2
2023/08/13 00:00:24;;;;;;;13.20;6.75;;;;;;;18.21;100.00;96335.56;1018883;29;20035;-73
2023/08/13 00:00:55;;;;;;;11.13;7.18;;;;;;;18.22;100.00;96336.34;1019919;29;20068;-72
2023/08/13 00:01:26;;;;;;;10.05;7.63;;;;;;;18.20;100.00;96341.16;1024240;29;20023;-73
2023/08/13 00:01:56;;;;;;;10.93;7.30;;;;;;;18.19;100.00;96336.94;1019640;29;20493;-73
2023/08/13 00:02:26;;;;;;;15.27;7.13;;;;;;;18.19;100.00;96342.25;1023303;28;20038;-72
2023/08/13 00:02:58;;;;;;;12.02;7.28;;;;;;;18.18;100.00;96346.00;1019553;29;20031;-73
2023/08/13 00:03:28;;;;;;;10.10;7.15;;;;;;;18.18;100.00;96346.00;1019485;29;20110;-74
2023/08/13 00:03:59;;;;;;;9.70;7.40;;;;;;;18.16;100.00;96337.53;1024260;28;20035;-73
2023/08/13 00:04:29;;;;;;;8.70;7.43;;;;;;;18.18;100.00;96338.81;1026764;28;20103;-72
2023/08/13 00:05:00;;;;;;;10.93;7.80;;;;;;;18.19;100.00;96339.59;1026628;28;20481;-73
2023/08/13 00:05:31;;;;;;;11.00;7.40;;;;;;;18.19;100.00;96334.28;1030116;28;20037;-71
2023/08/13 00:06:02;;;;;;;9.70;6.88;;;;;;;18.20;100.00;96336.63;1022393;29;20481;-73
2023/08/13 00:06:32;;;;;;;9.45;6.80;;;;;;;18.19;100.00;96323.66;1022356;28;20031;-73
2023/08/13 00:07:03;;;;;;;9.10;6.88;;;;;;;18.18;100.00;96330.06;1026218;28;20043;-73
2023/08/13 00:07:33;;;;;;;11.73;7.13;;;;;;;18.22;100.00;96333.69;1026525;28;20027;-73
2023/08/13 00:08:04;;;;;;;10.95;7.55;;;;;;;18.22;100.00;96326.50;1034439;28;20026;-74
2023/08/13 00:08:35;;;;;;;8.77;7.07;;;;;;;18.22;100.00;96315.09;1034328;28;20038;-73
2023/08/13 00:09:05;;;;;;;8.23;6.65;;;;;;;18.18;100.00;96322.09;1038301;28;20029;-72
2023/08/13 00:09:36;;;;;;;9.80;7.43;;;;;;;18.18;100.00;96320.22;1030168;28;20022;-71
2023/08/13 00:10:06;;;;;;;8.18;6.80;;;;;;;18.16;100.00;96305.66;1026376;28;20058;-73
2023/08/13 00:10:38;;;;;;;9.43;6.85;;;;;;;18.06;100.00;96299.44;1025394;28;20477;-74
2023/08/13 00:11:09;;;;;;;10.77;7.03;;;;;;;18.13;100.00;96318.41;1026376;28;20019;-73
2023/08/13 00:11:39;;;;;;;9.55;7.50;;;;;;;18.20;100.00;96322.56;1026642;28;20030;-74
2023/08/13 00:12:10;;;;;;;10.82;7.90;;;;;;;18.19;100.00;96321.00;1026270;28;20580;-74
2023/08/13 00:12:40;;;;;;;10.10;6.82;;;;;;;18.12;100.00;96313.41;1026444;28;20031;-74
2023/08/13 00:13:11;;;;;;;9.07;6.60;;;;;;;18.16;100.00;96318.94;1033474;28;20577;-73
2023/08/13 00:13:41;;;;;;;9.30;7.07;;;;;;;18.16;100.00;96327.69;1034449;28;20030;-72
2023/08/13 00:14:12;;;;;;;9.77;6.90;;;;;;;18.15;100.00;96320.81;1034444;28;20026;-71
2023/08/13 00:14:42;;;;;;;13.85;7.55;;;;;;;18.10;100.00;96316.34;1034355;28;20038;-74
2023/08/13 00:15:13;;;;;;;9.38;7.30;;;;;;;18.12;100.00;96321.38;1030066;28;20053;-72
2023/08/13 00:15:43;;;;;;;8.88;7.07;;;;;;;18.10;100.00;96323.53;1026480;28;20416;-74
2023/08/13 00:16:14;;;;;;;12.68;7.20;;;;;;;18.09;100.00;96320.09;1030130;28;20025;-73
2023/08/13 00:16:45;;;;;;;8.93;7.15;;;;;;;18.06;100.00;96320.69;1026262;28;20122;-74
2023/08/13 00:17:15;;;;;;;8.73;7.10;;;;;;;17.99;100.00;96314.22;1026236;28;20031;-74
2023/08/13 00:17:46;;;;;;;11.80;7.13;;;;;;;18.03;100.00;96323.94;1026504;28;20019;-74
2023/08/13 00:18:16;;;;;;;10.73;6.93;;;;;;;18.03;100.00;96323.16;1026201;28;20023;-72
2023/08/13 00:18:47;;;;;;;8.18;7.35;;;;;;;17.99;100.00;96317.66;1022297;29;20102;-72
2023/08/13 00:19:17;;;;;;;13.18;7.28;;;;;;;17.96;100.00;96312.16;1018158;29;20962;-72
2023/08/13 00:19:47;;;;;;;14.00;6.90;;;;;;;17.99;100.00;96317.66;1020580;28;20027;-72
2023/08/13 00:20:18;;;;;;;11.13;6.35;;;;;;;17.98;100.00;96320.63;1018312;28;20447;-71
2023/08/13 00:20:48;;;;;;;7.07;6.18;;;;;;;17.98;100.00;96321.41;1022201;28;20023;-72
2023/08/13 00:21:19;;;;;;;9.68;6.72;;;;;;;17.93;100.00;96312.72;1026447;28;20496;-72
2023/08/13 00:21:49;;;;;;;10.48;6.10;;;;;;;17.93;100.00;96324.13;1026372;28;20027;-73
2023/08/13 00:22:21;;;;;;;9.50;6.88;;;;;;;17.91;100.00;96318.34;1022195;28;20032;-73
2023/08/13 00:22:52;;;;;;;11.40;6.90;;;;;;;17.86;100.00;96321.88;1026428;28;20576;-74
2023/08/13 00:23:22;;;;;;;11.25;6.70;;;;;;;17.84;100.00;96317.94;1026401;28;20019;-73
2023/08/13 00:23:53;;;;;;;11.40;7.43;;;;;;;17.82;100.00;96318.22;1030310;28;20026;-72
2023/08/13 00:24:23;;;;;;;8.93;6.90;;;;;;;17.72;100.00;96307.78;1022563;28;20038;-72
2023/08/13 00:24:55;;;;;;;9.02;6.82;;;;;;;17.78;100.00;96316.47;1020436;28;20066;-73
2023/08/13 00:25:25;;;;;;;8.90;6.82;;;;;;;17.79;100.00;96315.38;1018122;29;20031;-72
2023/08/13 00:25:56;;;;;;;10.60;7.32;;;;;;;17.75;100.00;96315.16;1018699;28;20110;-73
2023/08/13 00:26:26;;;;;;;8.60;6.10;;;;;;;17.74;100.00;96320.75;1022758;28;20027;-72
2023/08/13 00:26:56;;;;;;;10.65;6.78;;;;;;;17.74;100.00;96318.91;1026097;28;20082;-71
2023/08/13 00:27:27;;;;;;;13.18;6.80;;;;;;;17.73;100.00;96324.50;1026280;28;20023;-73
2023/08/13 00:27:57;;;;;;;13.18;7.15;;;;;;;17.72;100.00;96317.63;1026272;28;20428;-72
2023/08/13 00:28:28;;;;;;;8.10;7.07;;;;;;;17.71;100.00;96316.84;1030243;28;20102;-72
2023/08/13 00:28:58;;;;;;;10.55;6.85;;;;;;;17.64;100.00;96305.81;1030181;28;20026;-72
2023/08/13 00:29:30;;;;;;;8.38;6.47;;;;;;;17.70;100.00;96319.75;1030376;28;20042;-72
2023/08/13 00:30:00;;;;;;;8.43;6.53;;;;;;;17.67;100.00;96321.94;1034142;28;20033;-71
2023/08/13 00:30:31;;;;;;;8.60;6.20;;;;;;;17.66;100.00;96316.91;1025813;28;20015;-69
2023/08/13 00:31:01;;;;;;;10.40;7.20;;;;;;;17.66;100.00;96319.56;1030124;28;20029;-72
2023/08/13 00:31:32;;;;;;;7.95;6.93;;;;;;;17.63;100.00;96326.25;1029762;28;20702;-72
2023/08/13 00:32:03;;;;;;;8.65;5.93;;;;;;;17.62;100.00;96322.00;1022505;28;20043;-72
2023/08/13 00:32:33;;;;;;;8.30;6.78;;;;;;;17.59;100.00;96319.16;1030317;28;20635;-71
2023/08/13 00:33:04;;;;;;;9.05;6.95;;;;;;;17.55;100.00;96316.31;1026324;28;20440;-73
2023/08/13 00:33:34;;;;;;;10.50;7.05;;;;;;;17.57;100.00;96316.00;1022069;28;20022;-72
2023/08/13 00:34:05;;;;;;;8.32;6.95;;;;;;;17.56;100.00;96325.84;1022303;29;20175;-74
2023/08/13 00:34:35;;;;;;;7.40;6.53;;;;;;;17.56;100.00;96312.56;1022188;29;20098;-72
2023/08/13 00:35:06;;;;;;;14.93;6.72;;;;;;;17.55;100.00;96316.31;1019986;28;20145;-73
2023/08/13 00:35:36;;;;;;;10.70;7.32;;;;;;;17.55;100.00;96315.53;1022166;28;20031;-73
2023/08/13 00:36:07;;;;;;;7.82;6.60;;;;;;;17.52;100.00;96311.59;1026267;28;20023;-75
2023/08/13 00:36:37;;;;;;;9.32;6.93;;;;;;;17.46;100.00;96307.44;1030096;28;20476;-73
2023/08/13 00:37:08;;;;;;;12.40;6.93;;;;;;;17.48;100.00;96313.25;1030286;28;20360;-72
2023/08/13 00:37:38;;;;;;;9.20;6.47;;;;;;;17.43;100.00;96300.84;1022150;29;20023;-72
2023/08/13 00:38:09;;;;;;;8.00;6.10;;;;;;;17.49;100.00;96317.47;1022355;29;20027;-73
2023/08/13 00:38:39;;;;;;;7.10;6.10;;;;;;;17.40;100.00;96300.66;1026145;28;20476;-72
2023/08/13 00:39:10;;;;;;;11.25;7.00;;;;;;;17.48;100.00;96313.25;1026399;28;20031;-71
2023/08/13 00:39:40;;;;;;;10.05;6.55;;;;;;;17.48;100.00;96317.78;1030260;28;20065;-72
2023/08/13 00:40:11;;;;;;;9.75;6.32;;;;;;;17.37;100.00;96296.72;1024659;28;20029;-74
2023/08/13 00:40:41;;;;;;;8.18;6.60;;;;;;;17.47;100.00;96319.66;1021686;28;20548;-73
2023/08/13 00:41:12;;;;;;;13.75;6.65;;;;;;;17.46;100.00;96309.31;1026342;28;20528;-73
2023/08/13 00:41:42;;;;;;;9.13;6.97;;;;;;;17.43;100.00;96310.69;1027024;28;20110;-71
2023/08/13 00:42:13;;;;;;;10.80;6.63;;;;;;;17.42;100.00;96319.72;1030827;28;20022;-71
2023/08/13 00:42:43;;;;;;;9.82;6.95;;;;;;;17.41;100.00;96312.84;1031164;28;20506;-73
2023/08/13 00:43:14;;;;;;;8.25;6.00;;;;;;;17.40;100.00;96313.91;1034992;28;20018;-72
2023/08/13 00:43:44;;;;;;;8.23;6.85;;;;;;;17.40;100.00;96321.88;1034908;28;20018;-73
2023/08/13 00:44:15;;;;;;;7.07;6.20;;;;;;;17.38;100.00;96311.56;1030894;28;20019;-73
2023/08/13 00:44:45;;;;;;;10.15;6.68;;;;;;;17.33;100.00;96305.53;1030957;28;20766;-72
2023/08/13 00:45:16;;;;;;;8.63;6.65;;;;;;;17.34;100.00;96313.22;1026753;28;20030;-74
2023/08/13 00:45:46;;;;;;;8.93;6.72;;;;;;;17.36;100.00;96310.28;1031044;28;20105;-72
2023/08/13 00:46:16;;;;;;;10.73;6.43;;;;;;;17.30;100.00;96306.13;1030856;28;20488;-73
2023/08/13 00:46:47;;;;;;;11.15;6.63;;;;;;;17.37;100.00;96311.84;1027045;28;20018;-72
2023/08/13 00:47:17;;;;;;;7.68;6.40;;;;;;;17.35;100.00;96314.00;1030775;28;20464;-70
2023/08/13 00:47:48;;;;;;;9.23;6.22;;;;;;;17.35;100.00;96319.31;1031041;28;20019;-72
2023/08/13 00:48:18;;;;;;;6.80;6.10;;;;;;;17.32;100.00;96314.59;1026837;28;20014;-71
2023/08/13 00:48:57;;;;;;;9.88;6.50;;;;;;;17.34;100.00;96317.75;1022920;28;20050;-72
2023/08/13 00:49:28;;;;;;;8.30;6.53;;;;;;;17.27;100.00;96306.69;1026961;28;20523;-71
2023/08/13 00:49:58;;;;;;;10.07;6.45;;;;;;;17.28;100.00;96314.38;1019024;29;20018;-73
2023/08/13 00:50:29;;;;;;;9.50;6.35;;;;;;;17.33;100.00;96316.16;1016589;29;20494;-73
2023/08/13 00:51:00;;;;;;;10.88;6.10;;;;;;;17.32;100.00;96319.91;1022793;29;20054;-73
2023/08/13 00:51:30;;;;;;;9.73;6.53;;;;;;;17.32;100.00;96317.25;1026903;28;20058;-72
2023/08/13 00:52:01;;;;;;;8.68;6.38;;;;;;;17.32;100.00;96325.19;1023693;28;20062;-71
2023/08/13 00:52:32;;;;;;;9.15;6.75;;;;;;;17.27;100.00;96306.69;1022964;29;20031;-73
2023/08/13 00:53:03;;;;;;;7.72;6.47;;;;;;;17.31;100.00;96320.97;1019203;29;20425;-72
2023/08/13 00:53:36;;;;;;;9.07;6.20;;;;;;;17.28;100.00;96311.72;1023640;28;20420;-74
2023/08/13 00:54:07;;;;;;;9.10;6.57;;;;;;;17.28;100.00;96313.59;1027601;28;20030;-73
2023/08/13 00:54:37;;;;;;;10.15;6.72;;;;;;;17.30;100.00;96317.50;1031514;28;20435;-73
2023/08/13 00:55:08;;;;;;;9.70;5.95;;;;;;;17.23;100.00;96308.38;1034544;28;20014;-73
2023/08/13 00:55:39;;;;;;;9.10;6.97;;;;;;;17.26;100.00;96321.84;1026749;28;20022;-74
2023/08/13 00:56:09;;;;;;;11.20;6.10;;;;;;;17.28;100.00;96314.38;1026935;28;20081;-74
2023/08/13 00:56:40;;;;;;;7.78;6.55;;;;;;;17.19;100.00;96303.66;1022663;29;20063;-73
2023/08/13 00:57:10;;;;;;;8.80;6.97;;;;;;;17.20;100.00;96310.53;1021448;29;20023;-73
2023/08/13 00:57:41;;;;;;;9.43;6.88;;;;;;;17.20;100.00;96307.88;1018897;29;20028;-73
2023/08/13 00:58:11;;;;;;;10.27;6.90;;;;;;;17.19;100.00;96308.94;1015064;29;20027;-72
2023/08/13 00:58:42;;;;;;;13.50;7.32;;;;;;;17.21;100.00;96308.66;1018828;29;20036;-72
2023/08/13 00:59:13;;;;;;;9.13;6.68;;;;;;;17.21;100.00;96308.66;1022897;29;20019;-72
2023/08/13 00:59:43;;;;;;;9.38;6.95;;;;;;;17.21;100.00;96303.38;1026950;28;20066;-72
2023/08/13 01:00:14;;;;;;;10.18;6.75;;;;;;;17.22;100.00;96304.16;1023007;28;20042;-73
2023/08/13 01:00:44;;;;;;;9.40;6.93;;;;;;;17.27;100.00;96317.31;1026175;28;20113;-73
2023/08/13 01:01:15;;;;;;;10.98;7.25;;;;;;;17.22;100.00;96306.81;1030902;28;20027;-73
2023/08/13 01:01:46;;;;;;;13.02;7.43;;;;;;;17.22;100.00;96312.09;1031055;28;20030;-73
2023/08/13 01:02:16;;;;;;;13.98;8.20;;;;;;;17.17;100.00;96305.81;1029445;28;20025;-72
2023/08/13 01:02:47;;;;;;;16.85;7.43;;;;;;;17.23;100.00;96311.03;1026900;28;20097;-73
2023/08/13 01:03:18;;;;;;;11.18;7.47;;;;;;;17.23;100.00;96308.38;1027132;28;20050;-72
2023/08/13 01:03:48;;;;;;;11.13;7.45;;;;;;;17.25;100.00;96303.56;1026908;28;20089;-70
2023/08/13 01:04:19;;;;;;;10.48;8.00;;;;;;;17.27;100.00;96306.69;1030726;28;20025;-72
2023/08/13 01:04:49;;;;;;;12.82;8.35;;;;;;;17.28;100.00;96310.94;1026770;28;20022;-71
2023/08/13 01:05:21;;;;;;;9.50;8.05;;;;;;;17.26;100.00;96299.84;1026950;28;20556;-71
2023/08/13 01:05:58;;;;;;;12.65;8.50;;;;;;;17.31;100.00;96313.81;1029799;28;20054;-73
2023/08/13 01:06:49;;;;;;;10.40;8.60;;;;;;;17.30;100.00;96311.44;1026845;28;20026;-72
2023/08/13 01:07:39;;;;;;;9.32;8.00;;;;;;;17.29;100.00;96310.66;1026686;28;20058;-73
2023/08/13 01:08:47;;;;;;;12.75;7.68;;;;;;;17.28;100.00;96303.00;1034986;28;20569;-71
2023/08/13 01:09:25;;;;;;;12.70;8.75;;;;;;;17.28;100.00;96308.31;1037803;28;20017;-72
2023/08/13 01:10:04;;;;;;;13.02;8.00;;;;;;;17.28;100.00;96317.03;1034840;28;20022;-72
2023/08/13 01:10:35;;;;;;;11.77;8.40;;;;;;;17.24;100.00;96308.09;1034224;28;20026;-73
2023/08/13 01:11:35;;;;;;;12.57;8.50;;;;;;;17.27;100.00;96312.00;1026321;28;20038;-71
2023/08/13 01:12:22;;;;;;;13.75;8.30;;;;;;;17.19;100.00;96305.50;1024825;28;20051;-71
2023/08/13 01:13:21;;;;;;;12.75;7.43;;;;;;;17.24;100.00;96321.34;1026797;28;20087;-73
2023/08/13 01:14:03;;;;;;;11.05;7.97;;;;;;;17.23;100.00;96311.81;1026905;28;20031;-73
2023/08/13 01:14:40;;;;;;;9.43;7.30;;;;;;;17.22;100.00;96310.25;1025348;28;20026;-72
2023/08/13 01:15:18;;;;;;;11.18;8.10;;;;;;;17.20;100.00;96313.19;1030776;28;20029;-73
2023/08/13 01:15:49;;;;;;;15.75;8.05;;;;;;;17.19;100.00;96313.47;1026765;28;20026;-73
2023/08/13 01:16:20;;;;;;;14.52;7.57;;;;;;;17.17;100.00;96315.63;1026543;28;20034;-72
2023/08/13 01:16:50;;;;;;;10.52;7.13;;;;;;;17.17;100.00;96313.78;1026918;28;20023;-72
2023/08/13 01:17:22;;;;;;;8.57;7.65;;;;;;;17.17;100.00;96313.78;1022505;29;20023;-72
2023/08/13 01:17:52;;;;;;;10.35;7.30;;;;;;;17.14;100.00;96309.03;1026730;28;20033;-74
2023/08/13 01:18:23;;;;;;;11.65;8.32;;;;;;;17.13;100.00;96311.97;1022761;29;20122;-70
2023/08/13 01:18:53;;;;;;;11.20;7.78;;;;;;;17.15;100.00;96315.13;1022772;29;20031;-72
2023/08/13 01:19:24;;;;;;;13.40;8.00;;;;;;;17.12;100.00;96307.75;1022827;29;20061;-72
2023/08/13 01:19:54;;;;;;;8.73;7.57;;;;;;;17.17;100.00;96318.28;1023969;28;20034;-72
2023/08/13 01:20:31;;;;;;;8.25;7.30;;;;;;;17.17;100.00;96319.06;1022378;29;20584;-72
2023/08/13 01:21:01;;;;;;;11.43;8.15;;;;;;;17.17;100.00;96323.59;1018796;29;20584;-72
2023/08/13 01:21:32;;;;;;;19.52;7.97;;;;;;;17.19;100.00;96322.22;1028558;28;20031;-73
2023/08/13 01:22:02;;;;;;;11.93;7.68;;;;;;;17.00;100.00;96297.63;1026768;28;20026;-73
2023/08/13 01:22:39;;;;;;;12.02;8.40;;;;;;;17.16;100.00;96316.69;1022688;29;20039;-72
2023/08/13 01:23:09;;;;;;;10.60;7.80;;;;;;;17.16;100.00;96317.47;1020061;28;20031;-73
2023/08/13 01:23:40;;;;;;;10.63;7.80;;;;;;;17.18;100.00;96320.63;1020363;28;20046;-73
2023/08/13 01:24:10;;;;;;;16.38;8.27;;;;;;;17.18;100.00;96319.84;1027763;28;20468;-71
2023/08/13 01:24:41;;;;;;;9.00;7.93;;;;;;;17.20;100.00;96318.50;1026934;28;20038;-72
2023/08/13 01:25:11;;;;;;;11.65;8.00;;;;;;;17.15;100.00;96309.81;1026688;28;20023;-73
2023/08/13 01:25:46;;;;;;;11.07;8.40;;;;;;;17.20;100.00;96318.50;1030825;28;20080;-72
2023/08/13 01:26:17;;;;;;;12.73;8.23;;;;;;;17.15;100.00;96313.25;1026710;28;20041;-71
2023/08/13 01:26:55;;;;;;;11.25;8.18;;;;;;;17.13;100.00;96312.75;1022695;28;20023;-72
2023/08/13 01:27:58;;;;;;;12.10;8.57;;;;;;;17.17;100.00;96319.06;1026896;28;20019;-72
2023/08/13 01:28:40;;;;;;;12.30;8.10;;;;;;;17.13;100.00;96314.63;1019645;29;20043;-72
2023/08/13 01:29:16;;;;;;;11.23;8.02;;;;;;;17.16;100.00;96322.78;1018722;29;20805;-71
2023/08/13 01:30:16;;;;;;;10.45;8.02;;;;;;;17.17;100.00;96321.72;1022807;29;20482;-70
2023/08/13 01:30:57;;;;;;;11.93;8.07;;;;;;;17.15;100.00;96323.88;1028211;28;20520;-72
2023/08/13 01:31:29;;;;;;;12.18;8.77;;;;;;;17.13;100.00;96318.06;1039055;28;20021;-70
2023/08/13 01:32:00;;;;;;;10.20;8.30;;;;;;;17.12;100.00;96313.84;1034444;28;20041;-71
2023/08/13 01:32:42;;;;;;;10.23;8.70;;;;;;;17.12;100.00;96315.72;1030767;28;20064;-72
2023/08/13 01:33:16;;;;;;;14.05;7.70;;;;;;;17.05;100.00;96305.47;1022645;28;20026;-72
2023/08/13 01:33:47;;;;;;;10.15;7.60;;;;;;;17.11;100.00;96317.56;1026782;28;20019;-72
2023/08/13 01:34:17;;;;;;;10.68;8.30;;;;;;;17.09;100.00;96311.75;1030736;28;20101;-72
2023/08/13 01:34:48;;;;;;;13.55;8.00;;;;;;;17.14;100.00;96318.88;1026955;28;20481;-73
2023/08/13 01:35:19;;;;;;;9.93;8.55;;;;;;;17.13;100.00;96317.28;1026556;28;20019;-73
2023/08/13 01:35:50;;;;;;;13.00;7.88;;;;;;;17.13;100.00;96318.06;1018874;29;20020;-73
2023/08/13 01:36:20;;;;;;;9.75;7.63;;;;;;;17.14;100.00;96311.69;1014699;29;20608;-71
2023/08/13 01:36:51;;;;;;;12.20;8.23;;;;;;;17.10;100.00;96305.41;1024703;28;20655;-72
2023/08/13 01:37:21;;;;;;;10.95;8.32;;;;;;;17.12;100.00;96310.41;1026708;28;20041;-71
2023/08/13 01:37:52;;;;;;;12.25;9.30;;;;;;;17.14;100.00;96305.63;1026809;28;20023;-72
2023/08/13 01:38:23;;;;;;;9.60;7.75;;;;;;;17.16;100.00;96309.53;1019251;28;20429;-73
2023/08/13 01:38:54;;;;;;;11.95;8.57;;;;;;;17.15;100.00;96293.91;1022778;29;20075;-73
2023/08/13 01:39:24;;;;;;;9.88;8.82;;;;;;;17.18;100.00;96302.06;1026723;28;20030;-71
2023/08/13 01:39:55;;;;;;;15.25;8.65;;;;;;;17.16;100.00;96293.63;1030675;28;20334;-72
2023/08/13 01:40:25;;;;;;;12.13;9.10;;;;;;;17.18;100.00;96299.44;1018605;28;20569;-71
2023/08/13 01:41:05;;;;;;;11.10;8.77;;;;;;;17.20;100.00;96302.59;1022615;29;20462;-73
2023/08/13 01:41:45;;;;;;;10.05;8.75;;;;;;;17.15;100.00;96294.69;1026667;28;20030;-72
2023/08/13 01:42:16;;;;;;;14.13;8.52;;;;;;;17.18;100.00;96301.28;1022470;28;20035;-71
2023/08/13 01:42:46;;;;;;;10.55;7.97;;;;;;;17.20;100.00;96296.47;1026707;28;20106;-72
2023/08/13 01:43:17;;;;;;;11.95;8.20;;;;;;;17.22;100.00;96294.31;1026618;28;20727;-73
2023/08/13 01:43:48;;;;;;;12.70;8.23;;;;;;;17.19;100.00;96295.69;1029923;28;20033;-72
2023/08/13 01:44:18;;;;;;;10.38;8.00;;;;;;;17.11;100.00;96285.75;1026735;28;20077;-72
2023/08/13 01:44:48;;;;;;;13.00;8.13;;;;;;;17.18;100.00;96294.13;1030898;28;20057;-71
2023/08/13 01:45:19;;;;;;;10.30;8.63;;;;;;;17.18;100.00;96296.78;1030462;28;20081;-72
2023/08/13 01:45:49;;;;;;;8.73;7.82;;;;;;;17.13;100.00;96290.75;1030765;28;20026;-73
2023/08/13 01:46:20;;;;;;;10.65;8.13;;;;;;;17.09;100.00;96277.28;1022552;28;20027;-73
2023/08/13 01:46:50;;;;;;;13.00;8.90;;;;;;;17.15;100.00;96293.91;1026516;28;20031;-73
2023/08/13 01:47:21;;;;;;;18.05;8.85;;;;;;;17.08;100.00;96283.69;1026637;28;20629;-73
2023/08/13 01:47:51;;;;;;;16.67;9.77;;;;;;;17.15;100.00;96291.25;1022840;28;20019;-73
2023/08/13 01:48:21;;;;;;;10.95;9.80;;;;;;;17.13;100.00;96288.88;1026551;28;20022;-72
2023/08/13 01:48:52;;;;;;;12.18;9.30;;;;;;;17.12;100.00;96295.28;1026540;28;20366;-71
2023/08/13 01:49:23;;;;;;;13.93;8.82;;;;;;;17.08;100.00;96283.69;1030888;28;20030;-72
2023/08/13 01:49:53;;;;;;;18.73;9.38;;;;;;;17.06;100.00;96282.41;1034749;28;20025;-71
2023/08/13 01:50:23;;;;;;;13.82;9.85;;;;;;;17.03;100.00;96286.41;1034020;28;20036;-71
2023/08/13 01:50:54;;;;;;;17.15;9.15;;;;;;;17.04;100.00;96288.00;1030390;28;20026;-72
2023/08/13 01:51:24;;;;;;;11.55;9.25;;;;;;;17.07;100.00;96292.72;1030695;28;20058;-72
2023/08/13 01:51:55;;;;;;;12.88;9.82;;;;;;;16.99;100.00;96280.13;1026548;28;20381;-71
2023/08/13 01:52:25;;;;;;;15.00;10.27;;;;;;;17.06;100.00;96290.34;1022609;28;20019;-71
2023/08/13 01:52:56;;;;;;;16.45;9.82;;;;;;;17.04;100.00;96292.53;1022544;29;20501;-70
2023/08/13 01:53:26;;;;;;;14.40;9.88;;;;;;;17.04;100.00;96287.22;1022745;28;20058;-73
2023/08/13 01:53:57;;;;;;;10.27;8.50;;;;;;;17.04;100.00;96289.88;1029152;28;20034;-72
2023/08/13 01:54:27;;;;;;;12.73;8.80;;;;;;;16.91;100.00;96272.84;1022751;29;20656;-72
2023/08/13 01:54:58;;;;;;;11.90;8.13;;;;;;;17.01;100.00;96285.94;1022459;29;20040;-73
2023/08/13 01:55:28;;;;;;;20.00;8.90;;;;;;;17.01;100.00;96285.94;1022491;29;20027;-73
2023/08/13 01:55:59;;;;;;;12.90;8.73;;;;;;;17.00;100.00;96292.31;1022446;29;20027;-71
2023/08/13 01:56:29;;;;;;;9.57;7.72;;;;;;;17.00;100.00;96288.84;1022739;28;20589;-71
2023/08/13 01:57:00;;;;;;;11.02;8.38;;;;;;;16.99;100.00;96289.94;1026695;28;20059;-71
2023/08/13 01:57:30;;;;;;;12.95;7.85;;;;;;;16.91;100.00;96278.91;1034743;28;20026;-75
2023/08/13 01:58:01;;;;;;;11.50;7.43;;;;;;;16.90;100.00;96279.19;1034700;28;20083;-73
2023/08/13 01:58:31;;;;;;;11.15;7.80;;;;;;;16.91;100.00;96284.22;1026578;28;20023;-70
2023/08/13 01:59:01;;;;;;;14.32;7.32;;;;;;;16.96;100.00;96297.38;1029004;28;20041;-74
2023/08/13 01:59:32;;;;;;;14.15;8.13;;;;;;;16.97;100.00;96292.88;1026533;28;20019;-71
2023/08/13 02:00:03;;;;;;;10.15;7.20;;;;;;;16.93;100.00;96286.56;1026816;28;20022;-72
2023/08/13 02:00:34;;;;;;;13.82;7.28;;;;;;;16.96;100.00;96296.59;1025707;28;20023;-73
2023/08/13 02:01:04;;;;;;;11.70;7.28;;;;;;;16.97;100.00;96290.25;1026664;28;20564;-72
2023/08/13 02:01:35;;;;;;;10.60;7.65;;;;;;;16.96;100.00;96297.38;1030679;28;20035;-71
2023/08/13 02:02:06;;;;;;;9.70;7.22;;;;;;;16.96;100.00;96296.59;1026680;28;20030;-73
2023/08/13 02:02:36;;;;;;;9.48;7.05;;;;;;;16.89;100.00;96280.28;1026606;28;20031;-75
2023/08/13 02:03:06;;;;;;;9.80;7.65;;;;;;;16.91;100.00;96294.81;1030566;28;20050;-71
2023/08/13 02:03:37;;;;;;;9.43;7.72;;;;;;;16.93;100.00;96297.97;1030692;28;20085;-75
2023/08/13 02:04:07;;;;;;;12.32;7.32;;;;;;;16.89;100.00;96293.53;1034679;28;20049;-71
2023/08/13 02:04:38;;;;;;;8.30;7.47;;;;;;;16.91;100.00;96300.13;1034657;28;20076;-72
2023/08/13 02:05:08;;;;;;;10.30;7.40;;;;;;;16.91;100.00;96296.69;1030598;28;20037;-73
2023/08/13 02:05:39;;;;;;;10.82;7.93;;;;;;;16.94;100.00;96298.75;1026471;28;20045;-73
2023/08/13 02:06:09;;;;;;;11.50;8.05;;;;;;;16.94;100.00;96298.75;1026831;28;20033;-72
2023/08/13 02:06:40;;;;;;;10.27;7.80;;;;;;;16.93;100.00;96295.34;1030516;28;20602;-72
2023/08/13 02:07:10;;;;;;;10.52;8.25;;;;;;;16.92;100.00;96291.09;1030479;28;20041;-71
2023/08/13 02:07:41;;;;;;;10.05;8.02;;;;;;;16.92;100.00;96296.38;1026262;28;20023;-72
2023/08/13 02:08:11;;;;;;;9.25;7.53;;;;;;;16.85;100.00;96287.22;1030567;28;20015;-72
2023/08/13 02:08:42;;;;;;;9.30;8.20;;;;;;;16.93;100.00;96297.16;1034758;28;20060;-72
2023/08/13 02:09:12;;;;;;;13.88;8.43;;;;;;;16.94;100.00;96298.75;1034440;28;20021;-74
2023/08/13 02:09:42;;;;;;;10.70;7.90;;;;;;;16.92;100.00;96288.44;1030493;28;20041;-72
2023/08/13 02:10:13;;;;;;;12.00;8.70;;;;;;;16.94;100.00;96294.25;1030540;28;20365;-72
2023/08/13 02:10:43;;;;;;;10.85;8.20;;;;;;;16.94;100.00;96296.91;1026083;28;20027;-71
2023/08/13 02:11:14;;;;;;;11.15;8.45;;;;;;;16.90;100.00;96287.94;1030512;28;20092;-71
2023/08/13 02:11:44;;;;;;;11.57;8.05;;;;;;;16.90;100.00;96292.44;1030438;28;20389;-72
2023/08/13 02:12:15;;;;;;;14.95;7.78;;;;;;;16.90;100.00;96292.44;1022610;28;20019;-71
2023/08/13 02:12:45;;;;;;;11.80;8.75;;;;;;;16.87;100.00;96287.75;1022696;29;20556;-73
2023/08/13 02:13:16;;;;;;;13.00;7.90;;;;;;;16.96;100.00;96299.25;1022709;28;20099;-72
2023/08/13 02:13:46;;;;;;;12.75;8.25;;;;;;;16.97;100.00;96298.19;1022649;28;20027;-71
2023/08/13 02:14:17;;;;;;;11.32;8.25;;;;;;;16.89;100.00;96281.06;1022721;28;20026;-73
2023/08/13 02:14:47;;;;;;;12.55;8.32;;;;;;;16.96;100.00;96297.38;1029000;28;20117;-72
2023/08/13 02:15:18;;;;;;;12.77;8.48;;;;;;;16.96;100.00;96296.59;1030525;28;20452;-72
2023/08/13 02:15:48;;;;;;;9.43;8.48;;;;;;;16.95;100.00;96292.38;1022533;28;20066;-71
2023/08/13 02:16:18;;;;;;;9.88;8.13;;;;;;;16.95;100.00;96297.69;1018424;29;20031;-73
2023/08/13 02:16:49;;;;;;;14.35;8.35;;;;;;;16.92;100.00;96292.94;1018768;29;20032;-71
2023/08/13 02:17:19;;;;;;;12.65;8.55;;;;;;;16.87;100.00;96282.44;1022669;28;20019;-71
2023/08/13 02:17:50;;;;;;;14.50;9.45;;;;;;;16.95;100.00;96297.69;1030590;28;20468;-72
2023/08/13 02:18:20;;;;;;;13.70;9.65;;;;;;;16.94;100.00;96299.53;1030365;28;20064;-72
2023/08/13 02:18:51;;;;;;;15.02;9.73;;;;;;;16.93;100.00;96307.78;1022589;28;20130;-72
2023/08/13 02:19:21;;;;;;;11.63;9.63;;;;;;;16.91;100.00;96299.34;1030473;28;20357;-71
2023/08/13 02:19:52;;;;;;;14.32;9.82;;;;;;;16.84;100.00;96289.09;1034315;28;20088;-71
2023/08/13 02:20:22;;;;;;;12.20;9.57;;;;;;;16.90;100.00;96297.75;1034023;28;20759;-71
2023/08/13 02:20:53;;;;;;;12.55;10.50;;;;;;;16.82;100.00;96288.59;1038473;28;20056;-72
2023/08/13 02:21:23;;;;;;;15.77;10.30;;;;;;;16.86;100.00;96292.22;1034382;28;20026;-70
2023/08/13 02:21:54;;;;;;;14.40;9.85;;;;;;;16.86;100.00;96294.88;1026748;28;20427;-72
2023/08/13 02:22:24;;;;;;;14.38;9.70;;;;;;;16.87;100.00;96293.06;1029480;28;20019;-72
2023/08/13 02:22:55;;;;;;;13.05;10.10;;;;;;;16.81;100.00;96292.31;1029583;28;20018;-71
2023/08/13 02:23:25;;;;;;;13.15;9.88;;;;;;;16.85;100.00;96289.88;1030945;28;20026;-72
2023/08/13 02:23:55;;;;;;;17.90;10.45;;;;;;;16.85;100.00;96292.53;1035166;28;20022;-73
2023/08/13 02:24:26;;;;;;;15.32;9.93;;;;;;;16.81;100.00;96297.63;1027049;28;20531;-72
2023/08/13 02:24:57;;;;;;;16.92;11.45;;;;;;;16.85;100.00;96292.53;1022948;28;20031;-71
2023/08/13 02:25:27;;;;;;;15.45;10.52;;;;;;;16.83;100.00;96297.31;1023140;29;20027;-71
2023/08/13 02:25:57;;;;;;;13.55;10.20;;;;;;;16.82;100.00;96293.09;1023199;28;20389;-71
2023/08/13 02:26:28;;;;;;;17.02;10.40;;;;;;;16.83;100.00;96292.03;1023676;28;20023;-71
2023/08/13 02:26:58;;;;;;;15.90;10.98;;;;;;;16.77;100.00;96294.00;1026909;28;20615;-72